createdAt,value
2018-02-12T00:00:44.014Z,0.90
2018-02-12T00:01:48.477Z,0.88
2018-02-12T00:02:52.740Z,0.86
2018-02-12T00:03:56.930Z,0.86
2018-02-12T00:05:01.183Z,0.87
2018-02-12T00:06:06.363Z,0.89
2018-02-12T00:07:10.505Z,0.88
2018-02-12T00:08:14.981Z,0.89
2018-02-12T00:09:19.755Z,0.91
2018-02-12T00:10:25.369Z,0.89
2018-02-12T00:11:30.503Z,0.92
2018-02-12T00:12:34.680Z,0.94
2018-02-12T00:13:38.864Z,0.96
2018-02-12T00:14:43.496Z,0.99
2018-02-12T00:15:47.966Z,1.05
2018-02-12T00:16:52.180Z,1.06
2018-02-12T00:17:56.372Z,1.07
2018-02-12T00:19:00.614Z,1.13
2018-02-12T00:20:05.502Z,1.16
2018-02-12T00:21:10.169Z,1.18
2018-02-12T00:22:14.907Z,1.19
2018-02-12T00:23:19.140Z,1.20
2018-02-12T00:24:24.371Z,1.22
2018-02-12T00:25:29.147Z,1.26
2018-02-12T00:26:33.333Z,1.24
2018-02-12T00:27:37.960Z,1.20
2018-02-12T00:28:42.495Z,1.20
2018-02-12T00:29:46.997Z,1.20
2018-02-12T00:30:51.589Z,1.24
2018-02-12T00:31:55.936Z,1.29
2018-02-12T00:33:00.555Z,1.26
2018-02-12T00:34:05.651Z,1.21
2018-02-12T00:35:09.828Z,1.19
2018-02-12T00:36:14.056Z,1.12
2018-02-12T00:37:18.220Z,1.09
2018-02-12T00:38:22.387Z,1.11
2018-02-12T00:39:27.562Z,1.08
2018-02-12T00:40:31.741Z,1.05
2018-02-12T00:41:35.887Z,1.07
2018-02-12T00:42:40.050Z,1.05
2018-02-12T00:43:44.344Z,1.04
2018-02-12T00:44:48.715Z,1.00
2018-02-12T00:45:53.652Z,1.00
2018-02-12T00:46:57.848Z,0.97
2018-02-12T00:48:03.892Z,0.99
2018-02-12T00:49:08.062Z,1.00
2018-02-12T00:50:12.351Z,1.01
2018-02-12T00:51:16.569Z,1.02
2018-02-12T00:52:20.873Z,1.01
2018-02-12T00:53:26.327Z,0.97
2018-02-12T00:54:30.499Z,0.98
2018-02-12T00:55:35.108Z,0.94
2018-02-12T00:56:39.423Z,0.93
2018-02-12T00:57:44.119Z,0.95
2018-02-12T00:58:49.064Z,0.91
2018-02-12T00:59:53.413Z,0.90
2018-02-12T01:00:57.781Z,0.86
2018-02-12T01:02:02.284Z,0.82
2018-02-12T01:03:07.347Z,0.89
2018-02-12T01:04:11.535Z,0.92
2018-02-12T01:05:15.683Z,0.94
2018-02-12T01:06:19.856Z,0.95
2018-02-12T01:07:24.080Z,0.94
2018-02-12T01:08:29.109Z,0.93
2018-02-12T01:09:33.794Z,0.94
2018-02-12T01:10:38.289Z,0.92
2018-02-12T01:11:42.465Z,0.91
2018-02-12T01:12:46.822Z,0.86
2018-02-12T01:13:51.127Z,0.81
2018-02-12T01:14:55.287Z,0.82
2018-02-12T01:15:59.731Z,0.80
2018-02-12T01:17:05.992Z,0.79
2018-02-12T01:18:10.179Z,0.77
2018-02-12T01:19:14.607Z,0.79
2018-02-12T01:20:18.843Z,0.79
2018-02-12T01:21:22.990Z,0.75
2018-02-12T01:22:28.187Z,0.71
2018-02-12T01:23:32.364Z,0.70
2018-02-12T01:24:36.534Z,0.66
2018-02-12T01:25:40.712Z,0.65
2018-02-12T01:26:44.976Z,0.65
2018-02-12T01:27:49.236Z,0.68
2018-02-12T01:28:54.147Z,0.74
2018-02-12T01:29:58.332Z,0.77
2018-02-12T01:31:03.043Z,0.79
2018-02-12T01:32:07.496Z,0.82
2018-02-12T01:33:11.802Z,0.82
2018-02-12T01:34:16.015Z,0.80
2018-02-12T01:35:20.552Z,0.79
2018-02-12T01:36:25.064Z,0.79
2018-02-12T01:37:29.209Z,0.84
2018-02-12T01:38:33.368Z,0.89
2018-02-12T01:39:37.813Z,0.92
2018-02-12T01:40:42.150Z,0.97
2018-02-12T01:41:47.025Z,1.00
2018-02-12T01:42:51.207Z,1.03
2018-02-12T01:43:55.696Z,1.06
2018-02-12T01:44:59.875Z,1.10
2018-02-12T01:46:05.159Z,1.09
2018-02-12T01:47:09.316Z,1.07
2018-02-12T01:48:13.520Z,1.05
2018-02-12T01:49:18.168Z,0.99
2018-02-12T01:50:22.360Z,0.97
2018-02-12T01:51:26.815Z,0.97
2018-02-12T01:52:31.519Z,0.95
2018-02-12T01:53:35.754Z,0.93
2018-02-12T01:54:39.957Z,0.96
2018-02-12T01:55:44.170Z,0.95
2018-02-12T01:56:49.397Z,0.95
2018-02-12T01:57:53.553Z,0.94
2018-02-12T01:58:58.053Z,0.94
2018-02-12T02:00:05.650Z,0.93
2018-02-12T02:01:10.329Z,0.94
2018-02-12T02:02:14.551Z,0.96
2018-02-12T02:03:18.691Z,0.98
2018-02-12T02:04:23.556Z,0.99
2018-02-12T02:05:29.075Z,1.01
2018-02-12T02:06:33.273Z,1.03
2018-02-12T02:07:37.550Z,1.04
2018-02-12T02:08:41.743Z,1.03
2018-02-12T02:09:46.340Z,1.00
2018-02-12T02:10:50.768Z,0.96
2018-02-12T02:11:55.255Z,0.90
2018-02-12T02:12:59.452Z,0.90
2018-02-12T02:14:03.648Z,0.87
2018-02-12T02:15:08.132Z,0.80
2018-02-12T02:16:12.579Z,0.80
2018-02-12T02:17:16.739Z,0.73
2018-02-12T02:18:20.918Z,0.70
2018-02-12T02:19:25.560Z,0.67
2018-02-12T02:20:30.583Z,0.64
2018-02-12T02:21:34.752Z,0.62
2018-02-12T02:22:39.012Z,0.64
2018-02-12T02:23:43.221Z,0.64
2018-02-12T02:24:47.908Z,0.65
2018-02-12T02:25:52.100Z,0.66
2018-02-12T02:26:56.227Z,0.62
2018-02-12T02:28:01.204Z,0.60
2018-02-12T02:29:05.356Z,0.56
2018-02-12T02:30:09.739Z,0.57
2018-02-12T02:31:14.595Z,0.57
2018-02-12T02:32:18.928Z,0.58
2018-02-12T02:33:23.063Z,0.58
2018-02-12T02:34:27.271Z,0.56
2018-02-12T02:35:31.923Z,0.51
2018-02-12T02:36:36.179Z,0.51
2018-02-12T02:37:40.669Z,0.50
2018-02-12T02:38:44.887Z,0.51
2018-02-12T02:39:49.324Z,0.51
2018-02-12T02:40:53.495Z,0.51
2018-02-12T02:41:57.679Z,0.52
2018-02-12T02:43:01.831Z,0.52
2018-02-12T02:44:06.408Z,0.52
2018-02-12T02:45:11.776Z,0.49
2018-02-12T02:46:15.953Z,0.45
2018-02-12T02:47:20.698Z,0.49
2018-02-12T02:48:25.244Z,0.48
2018-02-12T02:49:29.761Z,0.45
2018-02-12T02:50:35.676Z,0.44
2018-02-12T02:51:40.617Z,0.49
2018-02-12T02:52:44.795Z,0.55
2018-02-12T02:53:49.184Z,0.51
2018-02-12T02:54:53.376Z,0.48
2018-02-12T02:55:57.896Z,0.45
2018-02-12T02:57:03.255Z,0.46
2018-02-12T02:58:07.540Z,0.44
2018-02-12T02:59:11.740Z,0.43
2018-02-12T03:00:17.267Z,0.42
2018-02-12T03:01:21.383Z,0.44
2018-02-12T03:02:25.881Z,0.41
2018-02-12T03:03:30.054Z,0.38
2018-02-12T03:04:34.631Z,0.40
2018-02-12T03:05:39.841Z,0.40
2018-02-12T03:06:44.335Z,0.42
2018-02-12T03:07:48.821Z,0.45
2018-02-12T03:08:53.072Z,0.47
2018-02-12T03:09:57.211Z,0.52
2018-02-12T03:11:01.452Z,0.57
2018-02-12T03:12:06.593Z,0.58
2018-02-12T03:13:10.831Z,0.58
2018-02-12T03:14:15.052Z,0.59
2018-02-12T03:15:21.430Z,0.61
2018-02-12T03:16:25.586Z,0.60
2018-02-12T03:17:29.952Z,0.64
2018-02-12T03:18:34.184Z,0.62
2018-02-12T03:19:39.227Z,0.61
2018-02-12T03:20:43.493Z,0.57
2018-02-12T03:21:48.254Z,0.60
2018-02-12T03:22:52.528Z,0.62
2018-02-12T03:23:56.816Z,0.59
2018-02-12T03:25:01.032Z,0.60
2018-02-12T03:26:05.807Z,0.58
2018-02-12T03:27:10.005Z,0.55
2018-02-12T03:28:14.444Z,0.52
2018-02-12T03:29:18.550Z,0.48
2018-02-12T03:30:23.023Z,0.45
2018-02-12T03:31:27.423Z,0.46
2018-02-12T03:32:32.159Z,0.47
2018-02-12T03:33:36.495Z,0.45
2018-02-12T03:34:41.084Z,0.42
2018-02-12T03:35:45.314Z,0.45
2018-02-12T03:36:49.755Z,0.50
2018-02-12T03:37:53.928Z,0.56
2018-02-12T03:38:58.060Z,0.57
2018-02-12T03:40:02.547Z,0.57
2018-02-12T03:41:06.807Z,0.53
2018-02-12T03:42:11.014Z,0.55
2018-02-12T03:43:15.132Z,0.55
2018-02-12T03:44:19.268Z,0.55
2018-02-12T03:45:23.844Z,0.56
2018-02-12T03:46:28.356Z,0.55
2018-02-12T03:47:32.614Z,0.54
2018-02-12T03:48:37.723Z,0.54
2018-02-12T03:49:41.994Z,0.54
2018-02-12T03:50:46.655Z,0.49
2018-02-12T03:51:50.892Z,0.50
2018-02-12T03:52:55.713Z,0.49
2018-02-12T03:54:00.212Z,0.49
2018-02-12T03:55:04.525Z,0.47
2018-02-12T03:56:09.163Z,0.49
2018-02-12T03:57:13.646Z,0.49
2018-02-12T03:58:17.770Z,0.55
2018-02-12T03:59:21.965Z,0.60
2018-02-12T04:00:26.616Z,0.65
2018-02-12T04:01:31.160Z,0.66
2018-02-12T04:02:36.869Z,0.65
2018-02-12T04:03:42.231Z,0.66
2018-02-12T04:04:46.969Z,0.64
2018-02-12T04:05:51.789Z,0.69
2018-02-12T04:06:56.300Z,0.71
2018-02-12T04:08:00.818Z,0.68
2018-02-12T04:09:05.492Z,0.66
2018-02-12T04:10:10.323Z,0.63
2018-02-12T04:11:15.011Z,0.57
2018-02-12T04:12:19.996Z,0.58
2018-02-12T04:13:24.512Z,0.53
2018-02-12T04:14:29.160Z,0.51
2018-02-12T04:15:33.443Z,0.50
2018-02-12T04:16:38.503Z,0.49
2018-02-12T04:17:42.986Z,0.49
2018-02-12T04:18:47.968Z,0.55
2018-02-12T04:19:52.706Z,0.57
2018-02-12T04:20:57.063Z,0.58
2018-02-12T04:22:01.739Z,0.59
2018-02-12T04:23:05.896Z,0.59
2018-02-12T04:24:11.037Z,0.61
2018-02-12T04:25:15.607Z,0.57
2018-02-12T04:26:19.827Z,0.55
2018-02-12T04:27:23.990Z,0.50
2018-02-12T04:28:28.151Z,0.50
2018-02-12T04:29:32.281Z,0.50
2018-02-12T04:30:36.879Z,0.54
2018-02-12T04:31:41.239Z,0.57
2018-02-12T04:32:45.832Z,0.60
2018-02-12T04:33:50.084Z,0.62
2018-02-12T04:34:54.340Z,0.68
2018-02-12T04:35:58.770Z,0.77
2018-02-12T04:37:02.976Z,0.78
2018-02-12T04:38:08.631Z,0.80
2018-02-12T04:39:13.283Z,0.74
2018-02-12T04:40:17.845Z,0.70
2018-02-12T04:41:22.048Z,0.66
2018-02-12T04:42:26.921Z,0.60
2018-02-12T04:43:31.346Z,0.54
2018-02-12T04:44:36.845Z,0.49
2018-02-12T04:45:41.419Z,0.49
2018-02-12T04:46:45.738Z,0.47
2018-02-12T04:47:49.942Z,0.46
2018-02-12T04:48:55.037Z,0.45
2018-02-12T04:49:59.455Z,0.42
2018-02-12T04:51:03.597Z,0.38
2018-02-12T04:52:08.082Z,0.35
2018-02-12T04:53:12.569Z,0.34
2018-02-12T04:54:16.733Z,0.31
2018-02-12T04:55:20.883Z,0.33
2018-02-12T04:56:25.763Z,0.29
2018-02-12T04:57:30.411Z,0.25
2018-02-12T04:58:34.821Z,0.24
2018-02-12T04:59:39.757Z,0.27
2018-02-12T05:00:44.847Z,0.27
2018-02-12T05:01:49.918Z,0.23
2018-02-12T05:02:54.256Z,0.18
2018-02-12T05:03:58.844Z,0.17
2018-02-12T05:05:03.147Z,0.16
2018-02-12T05:06:07.767Z,0.15
2018-02-12T05:07:12.193Z,0.21
2018-02-12T05:08:16.801Z,0.17
2018-02-12T05:09:20.936Z,0.14
2018-02-12T05:10:25.952Z,0.11
2018-02-12T05:11:30.656Z,0.11
2018-02-12T05:12:35.858Z,0.09
2018-02-12T05:13:40.004Z,0.11
2018-02-12T05:14:44.549Z,0.12
2018-02-12T05:15:49.086Z,0.12
2018-02-12T05:16:53.433Z,0.11
2018-02-12T05:17:57.750Z,0.14
2018-02-12T05:19:02.048Z,0.17
2018-02-12T05:20:06.555Z,0.15
2018-02-12T05:21:10.728Z,0.18
2018-02-12T05:22:15.728Z,0.19
2018-02-12T05:23:19.895Z,0.20
2018-02-12T05:24:24.472Z,0.24
2018-02-12T05:25:28.718Z,0.24
2018-02-12T05:26:33.171Z,0.21
2018-02-12T05:27:38.115Z,0.18
2018-02-12T05:28:42.315Z,0.27
2018-02-12T05:29:46.624Z,0.28
2018-02-12T05:30:51.136Z,0.24
2018-02-12T05:31:55.348Z,0.24
2018-02-12T05:32:59.815Z,0.27
2018-02-12T05:34:04.108Z,0.28
2018-02-12T05:35:08.249Z,0.29
2018-02-12T05:36:12.464Z,0.33
2018-02-12T05:37:16.792Z,0.30
2018-02-12T05:38:21.032Z,0.32
2018-02-12T05:39:25.508Z,0.29
2018-02-12T05:40:29.754Z,0.27
2018-02-12T05:41:33.924Z,0.24
2018-02-12T05:42:38.061Z,0.28
2018-02-12T05:43:42.450Z,0.33
2018-02-12T05:44:46.618Z,0.41
2018-02-12T05:45:50.920Z,0.53
2018-02-12T05:46:55.462Z,0.53
2018-02-12T05:47:59.625Z,0.53
2018-02-12T05:49:04.127Z,0.53
2018-02-12T05:50:08.932Z,0.54
2018-02-12T05:51:13.215Z,0.53
2018-02-12T05:52:17.478Z,0.56
2018-02-12T05:53:21.619Z,0.51
2018-02-12T05:54:25.829Z,0.53
2018-02-12T05:55:30.082Z,0.55
2018-02-12T05:56:34.283Z,0.52
2018-02-12T05:57:38.756Z,0.52
2018-02-12T05:58:43.851Z,0.51
2018-02-12T05:59:47.980Z,0.53
2018-02-12T06:00:52.415Z,0.61
2018-02-12T06:01:56.704Z,0.63
2018-02-12T06:03:01.037Z,0.57
2018-02-12T06:04:05.515Z,0.53
2018-02-12T06:05:10.776Z,0.50
2018-02-12T06:06:14.937Z,0.52
2018-02-12T06:07:19.326Z,0.58
2018-02-12T06:08:23.659Z,0.64
2018-02-12T06:09:27.843Z,0.60
2018-02-12T06:10:32.342Z,0.60
2018-02-12T06:11:37.660Z,0.66
2018-02-12T06:12:42.424Z,0.64
2018-02-12T06:13:46.596Z,0.64
2018-02-12T06:14:51.005Z,0.68
2018-02-12T06:15:55.467Z,0.73
2018-02-12T06:17:00.156Z,0.72
2018-02-12T06:18:04.831Z,0.74
2018-02-12T06:19:09.532Z,0.71
2018-02-12T06:20:13.827Z,0.74
2018-02-12T06:21:18.040Z,0.81
2018-02-12T06:22:22.251Z,0.82
2018-02-12T06:23:26.780Z,0.86
2018-02-12T06:24:31.004Z,0.90
2018-02-12T06:25:35.256Z,0.90
2018-02-12T06:26:39.405Z,0.89
2018-02-12T06:27:43.582Z,0.92
2018-02-12T06:28:47.820Z,0.93
2018-02-12T06:29:52.292Z,1.00
2018-02-12T06:30:57.043Z,0.97
2018-02-12T06:32:01.709Z,0.98
2018-02-12T06:33:05.953Z,1.01
2018-02-12T06:34:10.247Z,1.07
2018-02-12T06:35:14.383Z,1.03
2018-02-12T06:36:18.512Z,1.07
2018-02-12T06:37:22.654Z,1.04
2018-02-12T06:38:26.827Z,1.04
2018-02-12T06:39:31.064Z,1.06
2018-02-12T06:40:35.232Z,1.04
2018-02-12T06:41:39.361Z,1.03
2018-02-12T06:42:44.466Z,1.03
2018-02-12T06:43:48.878Z,1.02
2018-02-12T06:44:52.987Z,0.98
2018-02-12T06:45:57.369Z,0.97
2018-02-12T06:47:01.709Z,1.01
2018-02-12T06:48:06.252Z,0.97
2018-02-12T06:49:10.476Z,0.95
2018-02-12T06:50:14.647Z,0.90
2018-02-12T06:51:19.563Z,0.86
2018-02-12T06:52:23.871Z,0.90
2018-02-12T06:53:28.092Z,0.88
2018-02-12T06:54:32.585Z,0.80
2018-02-12T06:55:36.727Z,0.76
2018-02-12T06:56:40.866Z,0.75
2018-02-12T06:57:45.837Z,0.79
2018-02-12T06:58:51.240Z,0.73
2018-02-12T06:59:55.364Z,0.72
2018-02-12T07:01:00.323Z,0.80
2018-02-12T07:02:04.705Z,0.76
2018-02-12T07:03:08.948Z,0.81
2018-02-12T07:04:13.059Z,0.80
2018-02-12T07:05:17.221Z,0.75
2018-02-12T07:06:22.250Z,0.77
2018-02-12T07:07:26.379Z,0.76
2018-02-12T07:08:31.340Z,0.78
2018-02-12T07:09:35.468Z,0.75
2018-02-12T07:10:39.728Z,0.75
2018-02-12T07:11:44.889Z,0.73
2018-02-12T07:12:49.045Z,0.73
2018-02-12T07:13:53.245Z,0.73
2018-02-12T07:14:57.433Z,0.78
2018-02-12T07:16:02.087Z,0.80
2018-02-12T07:17:06.676Z,0.84
2018-02-12T07:18:11.274Z,0.87
2018-02-12T07:19:15.408Z,0.91
2018-02-12T07:20:20.168Z,0.92
2018-02-12T07:21:25.236Z,0.93
2018-02-12T07:22:29.724Z,0.92
2018-02-12T07:23:34.187Z,0.98
2018-02-12T07:24:38.323Z,1.01
2018-02-12T07:25:43.325Z,1.08
2018-02-12T07:26:47.471Z,1.14
2018-02-12T07:27:51.676Z,1.23
2018-02-12T07:28:55.983Z,1.24
2018-02-12T07:30:00.445Z,1.20
2018-02-12T07:31:05.268Z,1.22
2018-02-12T07:32:09.721Z,1.18
2018-02-12T07:33:13.888Z,1.18
2018-02-12T07:34:18.096Z,1.19
2018-02-12T07:35:23.169Z,1.19
2018-02-12T07:36:27.715Z,1.22
2018-02-12T07:37:31.879Z,1.24
2018-02-12T07:38:35.998Z,1.18
2018-02-12T07:39:40.278Z,1.15
2018-02-12T07:40:45.319Z,1.12
2018-02-12T07:41:49.472Z,1.18
2018-02-12T07:42:54.202Z,1.25
2018-02-12T07:43:58.349Z,1.21
2018-02-12T07:45:04.151Z,1.19
2018-02-12T07:46:08.310Z,1.19
2018-02-12T07:47:12.585Z,1.26
2018-02-12T07:48:17.089Z,1.29
2018-02-12T07:49:21.328Z,1.34
2018-02-12T07:50:25.499Z,1.47
2018-02-12T07:51:29.734Z,1.59
2018-02-12T07:52:33.896Z,1.61
2018-02-12T07:53:38.046Z,1.69
2018-02-12T07:54:42.658Z,1.73
2018-02-12T07:55:47.896Z,1.80
2018-02-12T07:56:52.197Z,1.92
2018-02-12T07:57:56.366Z,1.88
2018-02-12T07:59:00.552Z,2.03
2018-02-12T08:00:06.271Z,2.19
2018-02-12T08:01:10.760Z,2.21
2018-02-12T08:02:14.901Z,2.23
2018-02-12T08:03:19.067Z,2.20
2018-02-12T08:04:23.703Z,2.11
2018-02-12T08:05:27.978Z,2.10
2018-02-12T08:06:32.356Z,2.12
2018-02-12T08:07:36.500Z,2.19
2018-02-12T08:08:40.668Z,2.21
2018-02-12T08:09:44.873Z,2.17
2018-02-12T08:10:49.055Z,2.10
2018-02-12T08:11:53.291Z,2.02
2018-02-12T08:12:57.440Z,1.96
2018-02-12T08:14:01.964Z,2.03
2018-02-12T08:15:07.255Z,1.98
2018-02-12T08:16:11.769Z,2.05
2018-02-12T08:17:16.212Z,2.06
2018-02-12T08:18:21.432Z,1.99
2018-02-12T08:19:25.671Z,1.94
2018-02-12T08:20:30.174Z,2.01
2018-02-12T08:21:34.429Z,2.15
2018-02-12T08:22:38.643Z,2.30
2018-02-12T08:23:42.830Z,2.58
2018-02-12T08:24:46.971Z,2.81
2018-02-12T08:25:51.219Z,2.74
2018-02-12T08:26:55.694Z,2.74
2018-02-12T08:27:59.948Z,2.42
2018-02-12T08:29:04.231Z,2.32
2018-02-12T08:30:08.836Z,2.22
2018-02-12T08:31:13.564Z,2.02
2018-02-12T08:32:17.730Z,1.91
2018-02-12T08:33:22.064Z,1.88
2018-02-12T08:34:27.132Z,1.89
2018-02-12T08:35:31.403Z,1.95
2018-02-12T08:36:35.536Z,1.94
2018-02-12T08:37:39.681Z,2.00
2018-02-12T08:38:44.257Z,2.05
2018-02-12T08:39:48.453Z,2.20
2018-02-12T08:40:52.749Z,2.21
2018-02-12T08:41:56.918Z,2.09
2018-02-12T08:43:01.266Z,2.06
2018-02-12T08:44:05.851Z,2.06
2018-02-12T08:45:10.487Z,2.08
2018-02-12T08:46:14.728Z,2.12
2018-02-12T08:47:19.962Z,2.05
2018-02-12T08:48:24.115Z,1.96
2018-02-12T08:49:28.341Z,1.85
2018-02-12T08:50:32.864Z,1.89
2018-02-12T08:51:37.016Z,1.83
2018-02-12T08:52:41.835Z,1.73
2018-02-12T08:53:46.021Z,1.76
2018-02-12T08:54:50.332Z,1.80
2018-02-12T08:55:54.604Z,1.76
2018-02-12T08:56:58.848Z,1.74
2018-02-12T08:58:03.112Z,1.73
2018-02-12T08:59:07.380Z,1.69
2018-02-12T09:00:13.689Z,1.67
2018-02-12T09:01:17.843Z,1.65
2018-02-12T09:02:22.295Z,1.63
2018-02-12T09:03:26.547Z,1.55
2018-02-12T09:04:30.724Z,1.47
2018-02-12T09:05:34.951Z,1.43
2018-02-12T09:06:39.089Z,1.38
2018-02-12T09:07:44.189Z,1.37
2018-02-12T09:08:48.460Z,1.40
2018-02-12T09:09:52.957Z,1.51
2018-02-12T09:10:57.206Z,1.59
2018-02-12T09:12:01.401Z,1.69
2018-02-12T09:13:05.708Z,1.78
2018-02-12T09:14:10.121Z,1.89
2018-02-12T09:15:16.480Z,2.01
2018-02-12T09:16:20.620Z,2.13
2018-02-12T09:17:24.976Z,2.23
2018-02-12T09:18:29.107Z,2.27
2018-02-12T09:19:33.677Z,2.31
2018-02-12T09:20:37.811Z,2.38
2018-02-12T09:21:42.709Z,2.53
2018-02-12T09:22:46.884Z,2.66
2018-02-12T09:23:51.081Z,2.87
2018-02-12T09:24:55.297Z,3.08
2018-02-12T09:25:59.821Z,3.16
2018-02-12T09:27:04.138Z,3.29
2018-02-12T09:28:08.397Z,3.26
2018-02-12T09:29:12.543Z,3.16
2018-02-12T09:30:16.961Z,3.24
2018-02-12T09:31:21.246Z,3.38
2018-02-12T09:32:26.600Z,3.74
2018-02-12T09:33:30.879Z,3.49
2018-02-12T09:34:35.096Z,3.40
2018-02-12T09:35:39.902Z,3.33
2018-02-12T09:36:44.655Z,3.38
2018-02-12T09:37:48.844Z,3.46
2018-02-12T09:38:53.094Z,3.55
2018-02-12T09:39:57.244Z,3.82
2018-02-12T09:41:01.452Z,4.02
2018-02-12T09:42:05.668Z,4.10
2018-02-12T09:43:10.923Z,3.96
2018-02-12T09:44:15.178Z,3.76
2018-02-12T09:45:20.826Z,3.47
2018-02-12T09:46:25.592Z,3.54
2018-02-12T09:47:31.493Z,3.61
2018-02-12T09:48:35.688Z,3.69
2018-02-12T09:49:40.943Z,3.97
2018-02-12T09:50:45.115Z,3.94
2018-02-12T09:51:49.693Z,3.86
2018-02-12T09:52:53.946Z,3.73
2018-02-12T09:53:58.289Z,3.63
2018-02-12T09:55:02.584Z,3.81
2018-02-12T09:56:07.015Z,3.67
2018-02-12T09:57:11.336Z,3.56
2018-02-12T09:58:15.521Z,3.51
2018-02-12T09:59:19.853Z,3.56
2018-02-12T10:00:24.319Z,3.58
2018-02-12T10:01:29.444Z,3.65
2018-02-12T10:02:33.723Z,3.69
2018-02-12T10:03:37.996Z,3.86
2018-02-12T10:04:42.975Z,4.07
2018-02-12T10:05:47.267Z,4.46
2018-02-12T10:06:51.425Z,4.59
2018-02-12T10:07:55.595Z,4.71
2018-02-12T10:09:00.072Z,4.91
2018-02-12T10:10:04.834Z,4.88
2018-02-12T10:11:09.215Z,4.90
2018-02-12T10:12:13.364Z,5.33
2018-02-12T10:13:17.539Z,5.64
2018-02-12T10:14:21.773Z,5.59
2018-02-12T10:15:27.384Z,5.57
2018-02-12T10:16:32.076Z,5.79
2018-02-12T10:17:36.272Z,5.51
2018-02-12T10:18:40.521Z,5.46
2018-02-12T10:19:45.493Z,5.41
2018-02-12T10:20:49.696Z,5.56
2018-02-12T10:21:53.844Z,5.77
2018-02-12T10:22:58.549Z,5.85
2018-02-12T10:24:02.950Z,5.95
2018-02-12T10:25:07.217Z,5.92
2018-02-12T10:26:11.425Z,6.00
2018-02-12T10:27:15.633Z,5.55
2018-02-12T10:28:19.820Z,5.62
2018-02-12T10:29:24.077Z,5.64
2018-02-12T10:30:29.168Z,5.60
2018-02-12T10:31:33.369Z,5.53
2018-02-12T10:32:37.589Z,5.50
2018-02-12T10:33:42.599Z,5.92
2018-02-12T10:34:46.762Z,5.98
2018-02-12T10:35:51.362Z,6.11
2018-02-12T10:36:55.709Z,6.51
2018-02-12T10:37:59.951Z,6.38
2018-02-12T10:39:04.452Z,6.30
2018-02-12T10:40:08.611Z,6.22
2018-02-12T10:41:12.855Z,6.12
2018-02-12T10:42:17.410Z,6.36
2018-02-12T10:43:21.656Z,6.05
2018-02-12T10:44:27.030Z,5.75
2018-02-12T10:45:32.277Z,5.88
2018-02-12T10:46:36.596Z,5.55
2018-02-12T10:47:40.798Z,4.93
2018-02-12T10:49:51.573Z,3.94
2018-02-12T10:50:55.772Z,3.43
2018-02-12T10:51:59.979Z,3.10
2018-02-12T10:53:04.331Z,2.87
2018-02-12T10:54:08.543Z,2.86
2018-02-12T10:55:13.247Z,2.68
2018-02-12T10:56:17.504Z,2.63
2018-02-12T10:57:21.741Z,2.60
2018-02-12T10:58:25.913Z,2.74
2018-02-12T10:59:31.106Z,2.70
2018-02-12T11:00:36.825Z,2.72
2018-02-12T11:01:42.636Z,2.66
2018-02-12T11:02:46.919Z,2.65
2018-02-12T11:03:51.178Z,2.68
2018-02-12T11:04:55.357Z,2.83
2018-02-12T11:05:59.482Z,3.08
2018-02-12T11:07:03.825Z,3.20
2018-02-12T11:08:08.371Z,3.16
2018-02-12T11:09:13.028Z,3.04
2018-02-12T11:10:17.205Z,2.95
2018-02-12T11:11:21.411Z,3.00
2018-02-12T11:12:25.701Z,3.08
2018-02-12T11:13:30.516Z,3.24
2018-02-12T11:14:34.810Z,3.67
2018-02-12T11:15:39.010Z,3.69
2018-02-12T11:16:43.970Z,3.47
2018-02-12T11:17:48.159Z,3.18
2018-02-12T11:18:52.397Z,3.32
2018-02-12T11:19:56.650Z,3.78
2018-02-12T11:21:01.148Z,4.34
2018-02-12T11:22:05.563Z,4.79
2018-02-12T11:23:09.741Z,5.57
2018-02-12T11:24:13.940Z,6.02
2018-02-12T11:25:18.213Z,6.31
2018-02-12T11:26:22.456Z,6.36
2018-02-12T11:27:27.900Z,6.55
2018-02-12T11:28:32.113Z,6.73
2018-02-12T11:29:36.273Z,7.14
2018-02-12T11:30:40.751Z,7.37
2018-02-12T11:31:45.416Z,7.27
2018-02-12T11:32:49.699Z,7.08
2018-02-12T11:33:54.201Z,7.16
2018-02-12T11:34:58.464Z,7.46
2018-02-12T11:36:02.739Z,6.66
2018-02-12T11:37:07.050Z,6.10
2018-02-12T11:38:11.231Z,6.36
2018-02-12T11:39:15.727Z,6.82
2018-02-12T11:40:19.937Z,7.04
2018-02-12T11:41:24.270Z,7.07
2018-02-12T11:42:28.415Z,7.24
2018-02-12T11:43:32.668Z,7.15
2018-02-12T11:44:36.899Z,7.16
2018-02-12T11:45:41.462Z,7.03
2018-02-12T11:46:46.721Z,7.42
2018-02-12T11:47:50.925Z,7.50
2018-02-12T11:48:55.074Z,7.80
2018-02-12T11:49:59.597Z,8.12
2018-02-12T11:51:04.041Z,7.85
2018-02-12T11:52:08.551Z,7.80
2018-02-12T11:53:13.005Z,7.83
2018-02-12T11:54:17.160Z,7.54
2018-02-12T11:55:21.447Z,7.67
2018-02-12T11:56:25.607Z,8.30
2018-02-12T11:57:29.809Z,8.63
2018-02-12T11:58:34.296Z,9.18
2018-02-12T11:59:38.526Z,8.70
2018-02-12T12:00:44.298Z,7.23
2018-02-12T12:01:48.754Z,6.28
2018-02-12T12:02:52.920Z,6.08
2018-02-12T12:03:57.120Z,5.73
2018-02-12T12:05:01.485Z,5.92
2018-02-12T12:06:05.848Z,6.57
2018-02-12T12:07:10.037Z,6.83
2018-02-12T12:08:14.234Z,6.83
2018-02-12T12:09:18.473Z,6.77
2018-02-12T12:10:22.722Z,6.54
2018-02-12T12:11:27.224Z,6.33
2018-02-12T12:12:31.434Z,6.09
2018-02-12T12:13:35.597Z,5.51
2018-02-12T12:14:39.889Z,5.27
2018-02-12T12:15:44.146Z,5.30
2018-02-12T12:16:48.433Z,5.22
2018-02-12T12:17:52.929Z,5.12
2018-02-12T12:18:57.137Z,4.92
2018-02-12T12:20:01.395Z,4.80
2018-02-12T12:21:05.696Z,4.69
2018-02-12T12:22:10.148Z,5.02
2018-02-12T12:23:14.457Z,4.98
2018-02-12T12:24:18.924Z,5.04
2018-02-12T12:25:23.243Z,5.12
2018-02-12T12:26:27.977Z,5.09
2018-02-12T12:27:32.261Z,5.14
2018-02-12T12:28:36.455Z,5.25
2018-02-12T12:29:41.584Z,5.36
2018-02-12T12:30:46.157Z,5.48
2018-02-12T12:31:50.361Z,5.57
2018-02-12T12:32:54.628Z,5.58
2018-02-12T12:33:58.819Z,5.43
2018-02-12T12:35:03.002Z,5.37
2018-02-12T12:36:07.580Z,5.42
2018-02-12T12:37:12.076Z,5.22
2018-02-12T12:38:16.315Z,5.06
2018-02-12T12:39:20.526Z,4.93
2018-02-12T12:40:25.499Z,4.81
2018-02-12T12:41:29.720Z,4.66
2018-02-12T12:42:34.232Z,4.50
2018-02-12T12:43:38.503Z,4.52
2018-02-12T12:44:43.475Z,4.48
2018-02-12T12:45:47.908Z,4.47
2018-02-12T12:46:53.413Z,4.49
2018-02-12T12:47:58.562Z,4.43
2018-02-12T12:49:03.427Z,4.26
2018-02-12T12:50:07.704Z,4.22
2018-02-12T12:51:13.138Z,4.13
2018-02-12T12:52:17.416Z,4.05
2018-02-12T12:53:21.716Z,3.99
2018-02-12T12:54:26.979Z,3.89
2018-02-12T12:55:31.183Z,3.57
2018-02-12T12:56:35.387Z,3.60
2018-02-12T12:57:39.716Z,3.58
2018-02-12T12:58:43.927Z,3.74
2018-02-12T12:59:48.179Z,4.06
2018-02-12T13:00:52.988Z,4.47
2018-02-12T13:01:58.238Z,5.07
2018-02-12T13:03:02.716Z,5.59
2018-02-12T13:04:06.944Z,6.20
2018-02-12T13:05:11.186Z,6.75
2018-02-12T13:06:15.428Z,7.54
2018-02-12T13:07:19.636Z,7.69
2018-02-12T13:08:24.524Z,7.89
2018-02-12T13:09:28.836Z,7.66
2018-02-12T13:10:33.669Z,8.34
2018-02-12T13:11:37.887Z,8.97
2018-02-12T13:12:42.959Z,8.09
2018-02-12T13:13:47.167Z,8.10
2018-02-12T13:14:52.374Z,8.74
2018-02-12T13:15:56.783Z,8.74
2018-02-12T13:17:00.996Z,8.77
2018-02-12T13:18:05.286Z,8.76
2018-02-12T13:19:10.075Z,8.64
2018-02-12T13:20:14.898Z,8.97
2018-02-12T13:21:19.197Z,9.16
2018-02-12T13:22:23.411Z,8.56
2018-02-12T13:23:27.724Z,8.42
2018-02-12T13:24:31.958Z,8.13
2018-02-12T13:25:36.878Z,8.08
2018-02-12T13:26:42.014Z,8.35
2018-02-12T13:27:46.359Z,7.90
2018-02-12T13:28:50.649Z,7.59
2018-02-12T13:29:54.904Z,7.69
2018-02-12T13:30:59.448Z,8.30
2018-02-12T13:32:03.746Z,8.64
2018-02-12T13:33:08.419Z,9.06
2018-02-12T13:34:12.770Z,9.79
2018-02-12T13:35:17.117Z,9.89
2018-02-12T13:36:21.398Z,9.39
2018-02-12T13:37:25.670Z,8.94
2018-02-12T13:38:30.012Z,9.22
2018-02-12T13:39:35.398Z,8.94
2018-02-12T13:40:39.655Z,8.56
2018-02-12T13:41:43.880Z,8.30
2018-02-12T13:42:48.096Z,8.30
2018-02-12T13:43:52.432Z,7.82
2018-02-12T13:44:56.673Z,7.07
2018-02-12T13:46:00.975Z,7.14
2018-02-12T13:47:05.171Z,7.14
2018-02-12T13:48:09.424Z,6.95
2018-02-12T13:49:13.830Z,6.83
2018-02-12T13:50:18.346Z,7.19
2018-02-12T13:51:22.598Z,7.10
2018-02-12T13:52:27.423Z,6.92
2018-02-12T13:53:32.918Z,6.56
2018-02-12T13:54:37.153Z,6.15
2018-02-12T13:55:41.486Z,6.22
2018-02-12T13:56:45.827Z,6.21
2018-02-12T13:57:50.048Z,5.69
2018-02-12T13:58:54.594Z,5.70
2018-02-12T13:59:58.812Z,6.20
2018-02-12T14:01:03.448Z,6.23
2018-02-12T14:02:08.540Z,6.16
2018-02-12T14:03:12.880Z,6.09
2018-02-12T14:04:17.197Z,6.68
2018-02-12T14:05:21.708Z,7.09
2018-02-12T14:06:26.042Z,7.23
2018-02-12T14:07:30.398Z,7.28
2018-02-12T14:08:34.716Z,7.21
2018-02-12T14:09:39.063Z,7.18
2018-02-12T14:10:43.345Z,6.94
2018-02-12T14:11:47.585Z,6.68
2018-02-12T14:12:51.843Z,7.15
2018-02-12T14:13:56.137Z,7.83
2018-02-12T14:15:00.309Z,7.71
2018-02-12T14:16:05.983Z,7.64
2018-02-12T14:17:10.648Z,7.60
2018-02-12T14:18:15.211Z,8.46
2018-02-12T14:19:20.021Z,8.84